sensor_id;sensor_type;location;lat;lon;timestamp;temperature;humidity
22108;DHT22;11220;48.812;9.128;2022-12-05T00:03:49;16.20;76.90
22108;DHT22;11220;48.812;9.128;2022-12-05T00:06:16;16.30;77.00
22108;DHT22;11220;48.812;9.128;2022-12-05T00:08:43;16.20;77.00
22108;DHT22;11220;48.812;9.128;2022-12-05T00:11:13;16.20;76.90
22108;DHT22;11220;48.812;9.128;2022-12-05T00:13:40;16.20;76.90
22108;DHT22;11220;48.812;9.128;2022-12-05T00:16:07;16.20;76.90
22108;DHT22;11220;48.812;9.128;2022-12-05T00:18:33;16.20;76.90
22108;DHT22;11220;48.812;9.128;2022-12-05T00:20:59;16.30;76.90
22108;DHT22;11220;48.812;9.128;2022-12-05T00:23:24;16.50;77.00
22108;DHT22;11220;48.812;9.128;2022-12-05T00:25:50;16.20;76.90
22108;DHT22;11220;48.812;9.128;2022-12-05T00:28:16;16.20;76.80
22108;DHT22;11220;48.812;9.128;2022-12-05T00:30:41;16.20;76.90
22108;DHT22;11220;48.812;9.128;2022-12-05T00:33:07;16.20;76.80
22108;DHT22;11220;48.812;9.128;2022-12-05T00:35:33;16.50;77.00
22108;DHT22;11220;48.812;9.128;2022-12-05T00:37:58;16.50;77.00
22108;DHT22;11220;48.812;9.128;2022-12-05T00:40:24;16.50;77.00
22108;DHT22;11220;48.812;9.128;2022-12-05T00:42:49;16.10;76.70
22108;DHT22;11220;48.812;9.128;2022-12-05T00:45:15;16.20;76.80
22108;DHT22;11220;48.812;9.128;2022-12-05T00:47:40;16.20;76.80
22108;DHT22;11220;48.812;9.128;2022-12-05T00:50:07;16.10;76.70
22108;DHT22;11220;48.812;9.128;2022-12-05T00:52:32;16.10;76.70
22108;DHT22;11220;48.812;9.128;2022-12-05T00:54:58;16.20;76.70
22108;DHT22;11220;48.812;9.128;2022-12-05T00:57:23;16.10;76.70
22108;DHT22;11220;48.812;9.128;2022-12-05T00:59:49;16.20;76.70
22108;DHT22;11220;48.812;9.128;2022-12-05T01:02:14;16.50;76.90
22108;DHT22;11220;48.812;9.128;2022-12-05T01:04:40;16.10;76.70
22108;DHT22;11220;48.812;9.128;2022-12-05T01:07:05;16.10;76.70
22108;DHT22;11220;48.812;9.128;2022-12-05T01:09:31;16.10;76.70
22108;DHT22;11220;48.812;9.128;2022-12-05T01:11:57;16.10;76.70
22108;DHT22;11220;48.812;9.128;2022-12-05T01:14:24;16.10;76.60
22108;DHT22;11220;48.812;9.128;2022-12-05T01:16:51;16.10;76.70
22108;DHT22;11220;48.812;9.128;2022-12-05T01:19:26;16.10;76.70
22108;DHT22;11220;48.812;9.128;2022-12-05T01:21:53;16.10;76.70
22108;DHT22;11220;48.812;9.128;2022-12-05T01:24:20;16.20;76.70
22108;DHT22;11220;48.812;9.128;2022-12-05T01:26:46;16.10;76.60
22108;DHT22;11220;48.812;9.128;2022-12-05T01:29:13;16.80;77.00
22108;DHT22;11220;48.812;9.128;2022-12-05T01:31:39;16.00;76.60
22108;DHT22;11220;48.812;9.128;2022-12-05T01:34:07;16.10;76.60
22108;DHT22;11220;48.812;9.128;2022-12-05T01:36:32;16.10;76.70
22108;DHT22;11220;48.812;9.128;2022-12-05T01:38:59;16.10;76.60
22108;DHT22;11220;48.812;9.128;2022-12-05T01:41:31;16.10;76.70
22108;DHT22;11220;48.812;9.128;2022-12-05T01:46:38;16.10;76.60
22108;DHT22;11220;48.812;9.128;2022-12-05T01:49:09;16.00;76.50
22108;DHT22;11220;48.812;9.128;2022-12-05T01:51:44;16.00;76.50
22108;DHT22;11220;48.812;9.128;2022-12-05T01:54:10;16.00;76.50
22108;DHT22;11220;48.812;9.128;2022-12-05T01:56:36;16.10;76.60
22108;DHT22;11220;48.812;9.128;2022-12-05T01:59:05;16.10;76.70
22108;DHT22;11220;48.812;9.128;2022-12-05T02:01:31;16.10;76.70
22108;DHT22;11220;48.812;9.128;2022-12-05T02:03:57;16.10;76.70
22108;DHT22;11220;48.812;9.128;2022-12-05T02:06:25;16.10;76.60
22108;DHT22;11220;48.812;9.128;2022-12-05T02:08:54;16.10;76.60
22108;DHT22;11220;48.812;9.128;2022-12-05T02:11:21;16.00;76.50
22108;DHT22;11220;48.812;9.128;2022-12-05T02:14:08;16.00;76.50
22108;DHT22;11220;48.812;9.128;2022-12-05T02:16:57;16.00;76.60
22108;DHT22;11220;48.812;9.128;2022-12-05T02:19:53;16.00;76.60
22108;DHT22;11220;48.812;9.128;2022-12-05T02:30:20;16.00;76.60
22108;DHT22;11220;48.812;9.128;2022-12-05T02:33:10;16.00;76.60
22108;DHT22;11220;48.812;9.128;2022-12-05T02:38:35;16.00;76.70
22108;DHT22;11220;48.812;9.128;2022-12-05T02:44:22;16.00;76.60
22108;DHT22;11220;48.812;9.128;2022-12-05T02:46:49;16.00;76.60
22108;DHT22;11220;48.812;9.128;2022-12-05T02:49:21;16.00;76.60
22108;DHT22;11220;48.812;9.128;2022-12-05T02:51:54;16.00;76.70
22108;DHT22;11220;48.812;9.128;2022-12-05T02:54:24;16.00;76.70
22108;DHT22;11220;48.812;9.128;2022-12-05T02:56:51;16.00;76.60
22108;DHT22;11220;48.812;9.128;2022-12-05T02:59:17;16.00;76.70
22108;DHT22;11220;48.812;9.128;2022-12-05T03:01:44;16.00;76.70
22108;DHT22;11220;48.812;9.128;2022-12-05T03:04:14;16.00;76.70
22108;DHT22;11220;48.812;9.128;2022-12-05T03:06:58;16.00;76.70
22108;DHT22;11220;48.812;9.128;2022-12-05T03:09:29;16.00;76.70
22108;DHT22;11220;48.812;9.128;2022-12-05T03:12:07;16.00;76.70
22108;DHT22;11220;48.812;9.128;2022-12-05T03:14:40;16.00;76.80
22108;DHT22;11220;48.812;9.128;2022-12-05T03:17:10;15.90;76.60
22108;DHT22;11220;48.812;9.128;2022-12-05T03:19:50;16.00;76.70
22108;DHT22;11220;48.812;9.128;2022-12-05T03:22:37;15.90;76.60
22108;DHT22;11220;48.812;9.128;2022-12-05T03:25:03;16.00;76.70
22108;DHT22;11220;48.812;9.128;2022-12-05T03:30:15;16.00;77.70
22108;DHT22;11220;48.812;9.128;2022-12-05T03:32:48;15.90;76.70
22108;DHT22;11220;48.812;9.128;2022-12-05T03:35:44;15.90;76.70
22108;DHT22;11220;48.812;9.128;2022-12-05T03:38:20;16.00;76.70
22108;DHT22;11220;48.812;9.128;2022-12-05T03:46:29;15.90;76.70
22108;DHT22;11220;48.812;9.128;2022-12-05T03:52:30;15.90;76.70
22108;DHT22;11220;48.812;9.128;2022-12-05T03:54:55;15.90;76.70
22108;DHT22;11220;48.812;9.128;2022-12-05T03:57:25;15.90;76.70
22108;DHT22;11220;48.812;9.128;2022-12-05T04:05:05;15.90;76.70
22108;DHT22;11220;48.812;9.128;2022-12-05T04:07:34;15.90;77.70
22108;DHT22;11220;48.812;9.128;2022-12-05T04:10:09;15.90;76.70
22108;DHT22;11220;48.812;9.128;2022-12-05T04:12:38;15.90;76.80
22108;DHT22;11220;48.812;9.128;2022-12-05T04:15:13;15.90;76.80
22108;DHT22;11220;48.812;9.128;2022-12-05T04:17:58;15.90;76.80
22108;DHT22;11220;48.812;9.128;2022-12-05T04:20:38;15.90;76.80
22108;DHT22;11220;48.812;9.128;2022-12-05T04:23:23;15.90;76.70
22108;DHT22;11220;48.812;9.128;2022-12-05T04:26:07;15.90;76.80
22108;DHT22;11220;48.812;9.128;2022-12-05T04:28:47;15.90;76.80
22108;DHT22;11220;48.812;9.128;2022-12-05T04:33:51;15.90;76.80
22108;DHT22;11220;48.812;9.128;2022-12-05T04:36:44;15.90;76.80
22108;DHT22;11220;48.812;9.128;2022-12-05T04:41:50;15.80;76.70
22108;DHT22;11220;48.812;9.128;2022-12-05T04:44:22;15.80;76.70
22108;DHT22;11220;48.812;9.128;2022-12-05T04:46:51;15.90;76.80
22108;DHT22;11220;48.812;9.128;2022-12-05T04:49:24;15.90;76.80
22108;DHT22;11220;48.812;9.128;2022-12-05T04:51:53;15.90;76.80
22108;DHT22;11220;48.812;9.128;2022-12-05T04:54:30;16.20;77.00
22108;DHT22;11220;48.812;9.128;2022-12-05T04:57:08;15.80;76.80
22108;DHT22;11220;48.812;9.128;2022-12-05T04:59:34;15.90;76.80
22108;DHT22;11220;48.812;9.128;2022-12-05T05:02:08;15.80;76.80
22108;DHT22;11220;48.812;9.128;2022-12-05T05:04:37;15.90;76.90
22108;DHT22;11220;48.812;9.128;2022-12-05T05:07:10;15.80;76.80
22108;DHT22;11220;48.812;9.128;2022-12-05T05:09:37;15.90;76.90
22108;DHT22;11220;48.812;9.128;2022-12-05T05:12:03;15.90;76.90
22108;DHT22;11220;48.812;9.128;2022-12-05T05:14:29;15.80;76.90
22108;DHT22;11220;48.812;9.128;2022-12-05T05:16:55;15.80;76.90
22108;DHT22;11220;48.812;9.128;2022-12-05T05:19:22;15.90;76.90
22108;DHT22;11220;48.812;9.128;2022-12-05T05:21:48;15.70;76.80
22108;DHT22;11220;48.812;9.128;2022-12-05T05:24:14;15.80;76.90
22108;DHT22;11220;48.812;9.128;2022-12-05T05:26:42;15.80;76.90
22108;DHT22;11220;48.812;9.128;2022-12-05T05:29:09;16.20;77.10
22108;DHT22;11220;48.812;9.128;2022-12-05T05:31:36;15.80;76.90
22108;DHT22;11220;48.812;9.128;2022-12-05T05:34:03;15.80;76.90
22108;DHT22;11220;48.812;9.128;2022-12-05T05:36:28;15.70;76.80
22108;DHT22;11220;48.812;9.128;2022-12-05T05:38:57;15.80;76.90
22108;DHT22;11220;48.812;9.128;2022-12-05T05:41:25;15.80;76.90
22108;DHT22;11220;48.812;9.128;2022-12-05T05:43:51;15.80;76.80
22108;DHT22;11220;48.812;9.128;2022-12-05T05:46:19;15.90;76.80
22108;DHT22;11220;48.812;9.128;2022-12-05T05:48:45;16.10;76.90
22108;DHT22;11220;48.812;9.128;2022-12-05T05:51:11;15.80;76.70
22108;DHT22;11220;48.812;9.128;2022-12-05T05:53:37;15.80;76.70
22108;DHT22;11220;48.812;9.128;2022-12-05T05:56:05;15.90;76.70
22108;DHT22;11220;48.812;9.128;2022-12-05T05:58:31;15.80;76.60
22108;DHT22;11220;48.812;9.128;2022-12-05T06:01:12;15.80;76.70
22108;DHT22;11220;48.812;9.128;2022-12-05T06:03:38;15.80;76.60
22108;DHT22;11220;48.812;9.128;2022-12-05T06:06:07;15.90;76.70
22108;DHT22;11220;48.812;9.128;2022-12-05T06:08:35;15.90;76.70
22108;DHT22;11220;48.812;9.128;2022-12-05T06:11:06;15.90;76.80
22108;DHT22;11220;48.812;9.128;2022-12-05T06:13:32;15.90;76.90
22108;DHT22;11220;48.812;9.128;2022-12-05T06:15:57;15.90;77.00
22108;DHT22;11220;48.812;9.128;2022-12-05T06:18:23;16.00;77.10
22108;DHT22;11220;48.812;9.128;2022-12-05T06:20:56;16.00;77.20
22108;DHT22;11220;48.812;9.128;2022-12-05T06:23:23;16.00;77.20
22108;DHT22;11220;48.812;9.128;2022-12-05T06:25:50;15.90;77.20
22108;DHT22;11220;48.812;9.128;2022-12-05T06:28:17;16.00;77.50
22108;DHT22;11220;48.812;9.128;2022-12-05T06:30:43;16.60;78.10
22108;DHT22;11220;48.812;9.128;2022-12-05T06:33:10;16.20;78.10
22108;DHT22;11220;48.812;9.128;2022-12-05T06:35:36;16.10;78.20
22108;DHT22;11220;48.812;9.128;2022-12-05T06:38:01;16.10;78.40
22108;DHT22;11220;48.812;9.128;2022-12-05T06:40:27;16.10;78.60
22108;DHT22;11220;48.812;9.128;2022-12-05T06:42:53;16.30;79.00
22108;DHT22;11220;48.812;9.128;2022-12-05T06:45:18;16.20;79.10
22108;DHT22;11220;48.812;9.128;2022-12-05T06:47:47;16.20;79.30
22108;DHT22;11220;48.812;9.128;2022-12-05T06:50:12;16.30;79.50
22108;DHT22;11220;48.812;9.128;2022-12-05T06:52:38;16.30;79.60
22108;DHT22;11220;48.812;9.128;2022-12-05T06:55:04;16.30;79.60
22108;DHT22;11220;48.812;9.128;2022-12-05T06:57:30;16.30;79.60
22108;DHT22;11220;48.812;9.128;2022-12-05T06:59:56;16.40;79.70
22108;DHT22;11220;48.812;9.128;2022-12-05T07:02:40;16.30;79.70
22108;DHT22;11220;48.812;9.128;2022-12-05T07:05:10;16.30;79.70
22108;DHT22;11220;48.812;9.128;2022-12-05T07:07:36;16.40;79.70
22108;DHT22;11220;48.812;9.128;2022-12-05T07:10:03;16.30;79.60
22108;DHT22;11220;48.812;9.128;2022-12-05T07:12:29;16.40;79.60
22108;DHT22;11220;48.812;9.128;2022-12-05T07:14:56;16.40;79.60
22108;DHT22;11220;48.812;9.128;2022-12-05T07:17:22;16.60;79.80
22108;DHT22;11220;48.812;9.128;2022-12-05T07:19:48;17.20;80.00
22108;DHT22;11220;48.812;9.128;2022-12-05T07:22:15;16.40;79.40
22108;DHT22;11220;48.812;9.128;2022-12-05T07:24:41;16.60;79.50
22108;DHT22;11220;48.812;9.128;2022-12-05T07:27:07;16.40;79.30
22108;DHT22;11220;48.812;9.128;2022-12-05T07:29:32;16.40;79.40
22108;DHT22;11220;48.812;9.128;2022-12-05T07:31:59;16.40;79.20
22108;DHT22;11220;48.812;9.128;2022-12-05T07:34:25;16.70;79.30
22108;DHT22;11220;48.812;9.128;2022-12-05T07:36:50;16.40;79.10
22108;DHT22;11220;48.812;9.128;2022-12-05T07:39:16;16.50;79.10
22108;DHT22;11220;48.812;9.128;2022-12-05T07:41:41;16.40;79.10
22108;DHT22;11220;48.812;9.128;2022-12-05T07:44:10;16.40;79.00
22108;DHT22;11220;48.812;9.128;2022-12-05T07:46:36;16.40;78.90
22108;DHT22;11220;48.812;9.128;2022-12-05T07:49:02;16.30;78.80
22108;DHT22;11220;48.812;9.128;2022-12-05T07:51:28;16.40;78.80
22108;DHT22;11220;48.812;9.128;2022-12-05T07:53:53;16.40;78.70
22108;DHT22;11220;48.812;9.128;2022-12-05T07:56:19;16.50;78.80
22108;DHT22;11220;48.812;9.128;2022-12-05T07:58:47;16.40;78.80
22108;DHT22;11220;48.812;9.128;2022-12-05T08:01:18;15.80;78.40
22108;DHT22;11220;48.812;9.128;2022-12-05T08:03:45;16.40;78.70
22108;DHT22;11220;48.812;9.128;2022-12-05T08:06:19;16.40;78.60
22108;DHT22;11220;48.812;9.128;2022-12-05T08:08:45;16.40;78.60
22108;DHT22;11220;48.812;9.128;2022-12-05T08:11:17;16.50;78.70
22108;DHT22;11220;48.812;9.128;2022-12-05T08:13:43;16.40;78.60
22108;DHT22;11220;48.812;9.128;2022-12-05T08:16:11;16.50;78.60
22108;DHT22;11220;48.812;9.128;2022-12-05T08:18:37;16.40;78.50
22108;DHT22;11220;48.812;9.128;2022-12-05T08:21:09;16.40;78.60
22108;DHT22;11220;48.812;9.128;2022-12-05T08:23:36;16.50;78.60
22108;DHT22;11220;48.812;9.128;2022-12-05T08:26:07;16.80;78.80
22108;DHT22;11220;48.812;9.128;2022-12-05T08:28:33;16.40;78.50
22108;DHT22;11220;48.812;9.128;2022-12-05T08:33:29;16.40;78.50
22108;DHT22;11220;48.812;9.128;2022-12-05T08:35:54;16.40;78.50
22108;DHT22;11220;48.812;9.128;2022-12-05T08:38:20;16.40;78.50
22108;DHT22;11220;48.812;9.128;2022-12-05T08:40:45;16.40;78.70
22108;DHT22;11220;48.812;9.128;2022-12-05T08:43:12;16.40;78.70
22108;DHT22;11220;48.812;9.128;2022-12-05T08:45:38;16.50;78.90
22108;DHT22;11220;48.812;9.128;2022-12-05T08:48:03;16.50;79.10
22108;DHT22;11220;48.812;9.128;2022-12-05T08:50:29;16.50;79.30
22108;DHT22;11220;48.812;9.128;2022-12-05T08:52:55;16.80;79.60
22108;DHT22;11220;48.812;9.128;2022-12-05T08:55:20;16.50;79.70
22108;DHT22;11220;48.812;9.128;2022-12-05T08:57:46;16.50;79.80
22108;DHT22;11220;48.812;9.128;2022-12-05T09:00:12;16.50;80.00
22108;DHT22;11220;48.812;9.128;2022-12-05T09:02:37;16.50;80.10
22108;DHT22;11220;48.812;9.128;2022-12-05T09:05:03;16.50;80.30
22108;DHT22;11220;48.812;9.128;2022-12-05T09:07:29;16.50;80.30
22108;DHT22;11220;48.812;9.128;2022-12-05T09:09:54;16.50;80.30
22108;DHT22;11220;48.812;9.128;2022-12-05T09:12:20;16.60;80.50
22108;DHT22;11220;48.812;9.128;2022-12-05T09:14:46;16.60;80.40
22108;DHT22;11220;48.812;9.128;2022-12-05T09:17:11;16.60;80.60
22108;DHT22;11220;48.812;9.128;2022-12-05T09:19:37;16.60;80.70
22108;DHT22;11220;48.812;9.128;2022-12-05T09:22:04;16.60;80.80
22108;DHT22;11220;48.812;9.128;2022-12-05T09:24:29;16.60;80.90
22108;DHT22;11220;48.812;9.128;2022-12-05T09:26:55;16.60;80.90
22108;DHT22;11220;48.812;9.128;2022-12-05T09:29:20;16.70;81.10
22108;DHT22;11220;48.812;9.128;2022-12-05T09:31:47;16.70;81.10
22108;DHT22;11220;48.812;9.128;2022-12-05T09:34:14;16.70;81.10
22108;DHT22;11220;48.812;9.128;2022-12-05T09:36:42;16.70;81.10
22108;DHT22;11220;48.812;9.128;2022-12-05T09:39:09;16.70;81.10
22108;DHT22;11220;48.812;9.128;2022-12-05T09:52:52;16.70;82.10
22108;DHT22;11220;48.812;9.128;2022-12-05T09:55:20;16.70;81.10
22108;DHT22;11220;48.812;9.128;2022-12-05T09:57:51;17.80;81.90
22108;DHT22;11220;48.812;9.128;2022-12-05T10:00:18;16.80;81.20
22108;DHT22;11220;48.812;9.128;2022-12-05T10:03:05;16.80;81.30
22108;DHT22;11220;48.812;9.128;2022-12-05T10:05:45;16.70;81.20
22108;DHT22;11220;48.812;9.128;2022-12-05T10:08:37;16.80;81.30
22108;DHT22;11220;48.812;9.128;2022-12-05T10:11:13;16.80;81.40
22108;DHT22;11220;48.812;9.128;2022-12-05T10:13:52;16.80;81.40
22108;DHT22;11220;48.812;9.128;2022-12-05T10:16:30;16.80;81.40
22108;DHT22;11220;48.812;9.128;2022-12-05T10:19:12;16.80;81.40
22108;DHT22;11220;48.812;9.128;2022-12-05T10:21:46;16.70;80.90
22108;DHT22;11220;48.812;9.128;2022-12-05T10:24:30;16.90;81.10
22108;DHT22;11220;48.812;9.128;2022-12-05T10:27:01;17.00;81.20
22108;DHT22;11220;48.812;9.128;2022-12-05T10:34:39;16.70;81.40
22108;DHT22;11220;48.812;9.128;2022-12-05T10:37:22;16.80;81.50
22108;DHT22;11220;48.812;9.128;2022-12-05T10:39:49;16.70;81.40
22108;DHT22;11220;48.812;9.128;2022-12-05T10:42:30;17.00;80.90
22108;DHT22;11220;48.812;9.128;2022-12-05T10:44:58;16.70;81.60
22108;DHT22;11220;48.812;9.128;2022-12-05T10:47:27;17.10;81.20
22108;DHT22;11220;48.812;9.128;2022-12-05T10:49:55;16.70;81.10
22108;DHT22;11220;48.812;9.128;2022-12-05T10:52:23;16.80;81.30
22108;DHT22;11220;48.812;9.128;2022-12-05T10:54:55;16.80;81.50
22108;DHT22;11220;48.812;9.128;2022-12-05T10:57:25;17.40;81.80
22108;DHT22;11220;48.812;9.128;2022-12-05T10:59:51;16.80;81.60
22108;DHT22;11220;48.812;9.128;2022-12-05T11:04:48;16.80;81.60
22108;DHT22;11220;48.812;9.128;2022-12-05T11:10:00;16.90;81.70
22108;DHT22;11220;48.812;9.128;2022-12-05T11:12:29;16.90;81.70
22108;DHT22;11220;48.812;9.128;2022-12-05T11:15:21;16.90;81.70
22108;DHT22;11220;48.812;9.128;2022-12-05T11:17:49;16.80;81.60
22108;DHT22;11220;48.812;9.128;2022-12-05T11:22:46;16.90;81.70
22108;DHT22;11220;48.812;9.128;2022-12-05T11:27:52;16.90;81.70
22108;DHT22;11220;48.812;9.128;2022-12-05T11:30:19;16.90;81.70
22108;DHT22;11220;48.812;9.128;2022-12-05T11:32:45;16.90;81.70
22108;DHT22;11220;48.812;9.128;2022-12-05T11:37:54;16.90;81.80
22108;DHT22;11220;48.812;9.128;2022-12-05T11:49:08;16.90;81.80
22108;DHT22;11220;48.812;9.128;2022-12-05T11:54:31;16.90;81.80
22108;DHT22;11220;48.812;9.128;2022-12-05T12:06:32;17.00;82.00
22108;DHT22;11220;48.812;9.128;2022-12-05T12:11:58;17.00;82.10
22108;DHT22;11220;48.812;9.128;2022-12-05T12:14:49;17.00;82.10
22108;DHT22;11220;48.812;9.128;2022-12-05T12:28:27;17.00;82.10
22108;DHT22;11220;48.812;9.128;2022-12-05T12:33:39;17.00;79.80
22108;DHT22;11220;48.812;9.128;2022-12-05T12:41:41;16.80;79.40
22108;DHT22;11220;48.812;9.128;2022-12-05T12:44:35;16.80;80.30
22108;DHT22;11220;48.812;9.128;2022-12-05T12:47:38;16.80;79.20
22108;DHT22;11220;48.812;9.128;2022-12-05T12:55:46;16.80;80.80
22108;DHT22;11220;48.812;9.128;2022-12-05T13:01:36;16.90;81.40
22108;DHT22;11220;48.812;9.128;2022-12-05T13:04:18;17.00;81.60
22108;DHT22;11220;48.812;9.128;2022-12-05T13:06:50;16.90;81.60
22108;DHT22;11220;48.812;9.128;2022-12-05T13:09:29;16.90;81.60
22108;DHT22;11220;48.812;9.128;2022-12-05T13:12:00;16.90;81.70
22108;DHT22;11220;48.812;9.128;2022-12-05T13:14:29;17.00;81.80
22108;DHT22;11220;48.812;9.128;2022-12-05T13:16:57;17.00;81.70
22108;DHT22;11220;48.812;9.128;2022-12-05T13:19:35;17.00;82.70
22108;DHT22;11220;48.812;9.128;2022-12-05T13:22:04;17.00;81.80
22108;DHT22;11220;48.812;9.128;2022-12-05T13:24:31;17.00;81.80
22108;DHT22;11220;48.812;9.128;2022-12-05T13:26:59;17.00;81.80
22108;DHT22;11220;48.812;9.128;2022-12-05T13:29:32;17.00;82.00
22108;DHT22;11220;48.812;9.128;2022-12-05T13:32:00;17.10;82.00
22108;DHT22;11220;48.812;9.128;2022-12-05T13:36:52;17.00;82.00
22108;DHT22;11220;48.812;9.128;2022-12-05T13:39:37;17.30;82.20
22108;DHT22;11220;48.812;9.128;2022-12-05T13:42:25;17.00;82.10
22108;DHT22;11220;48.812;9.128;2022-12-05T13:45:06;17.00;82.10
22108;DHT22;11220;48.812;9.128;2022-12-05T13:50:07;17.00;82.30
22108;DHT22;11220;48.812;9.128;2022-12-05T13:52:47;17.00;82.30
22108;DHT22;11220;48.812;9.128;2022-12-05T13:55:35;17.00;82.50
22108;DHT22;11220;48.812;9.128;2022-12-05T14:00:45;17.00;82.60
22108;DHT22;11220;48.812;9.128;2022-12-05T14:03:16;17.00;82.70
22108;DHT22;11220;48.812;9.128;2022-12-05T14:05:49;17.10;82.80
22108;DHT22;11220;48.812;9.128;2022-12-05T14:15:51;17.10;82.70
22108;DHT22;11220;48.812;9.128;2022-12-05T14:18:44;17.10;81.80
22108;DHT22;11220;48.812;9.128;2022-12-05T14:24:11;16.80;78.30
22108;DHT22;11220;48.812;9.128;2022-12-05T14:27:03;16.80;79.40
22108;DHT22;11220;48.812;9.128;2022-12-05T14:30:04;16.80;80.10
22108;DHT22;11220;48.812;9.128;2022-12-05T14:32:38;16.80;80.40
22108;DHT22;11220;48.812;9.128;2022-12-05T14:38:32;16.90;80.80
22108;DHT22;11220;48.812;9.128;2022-12-05T14:43:38;17.00;80.70
22108;DHT22;11220;48.812;9.128;2022-12-05T14:46:19;17.00;80.70
22108;DHT22;11220;48.812;9.128;2022-12-05T14:48:46;17.00;80.60
22108;DHT22;11220;48.812;9.128;2022-12-05T14:54:15;17.20;80.60
22108;DHT22;11220;48.812;9.128;2022-12-05T14:56:47;17.10;80.40
22108;DHT22;11220;48.812;9.128;2022-12-05T14:59:43;17.10;80.30
22108;DHT22;11220;48.812;9.128;2022-12-05T15:02:19;17.10;80.20
22108;DHT22;11220;48.812;9.128;2022-12-05T15:04:53;17.20;80.20
22108;DHT22;11220;48.812;9.128;2022-12-05T15:07:30;17.20;80.10
22108;DHT22;11220;48.812;9.128;2022-12-05T15:10:02;17.20;80.20
22108;DHT22;11220;48.812;9.128;2022-12-05T15:12:58;17.20;79.60
22108;DHT22;11220;48.812;9.128;2022-12-05T15:15:35;17.10;78.10
22108;DHT22;11220;48.812;9.128;2022-12-05T15:21:12;17.10;79.10
22108;DHT22;11220;48.812;9.128;2022-12-05T15:23:46;17.10;79.40
22108;DHT22;11220;48.812;9.128;2022-12-05T15:26:22;17.10;79.30
22108;DHT22;11220;48.812;9.128;2022-12-05T15:31:45;17.10;79.30
22108;DHT22;11220;48.812;9.128;2022-12-05T15:40:02;17.10;79.50
22108;DHT22;11220;48.812;9.128;2022-12-05T15:42:41;17.10;79.60
22108;DHT22;11220;48.812;9.128;2022-12-05T15:52:46;17.00;79.90
22108;DHT22;11220;48.812;9.128;2022-12-05T15:55:37;17.00;80.00
22108;DHT22;11220;48.812;9.128;2022-12-05T15:58:11;17.00;80.00
22108;DHT22;11220;48.812;9.128;2022-12-05T16:00:41;17.00;80.00
22108;DHT22;11220;48.812;9.128;2022-12-05T16:03:24;17.10;80.20
22108;DHT22;11220;48.812;9.128;2022-12-05T16:05:57;17.00;80.20
22108;DHT22;11220;48.812;9.128;2022-12-05T16:08:25;16.90;80.20
22108;DHT22;11220;48.812;9.128;2022-12-05T16:10:55;17.00;80.50
22108;DHT22;11220;48.812;9.128;2022-12-05T16:13:23;17.40;77.80
22108;DHT22;11220;48.812;9.128;2022-12-05T16:15:52;16.80;76.70
22108;DHT22;11220;48.812;9.128;2022-12-05T16:18:28;16.70;77.60
22108;DHT22;11220;48.812;9.128;2022-12-05T16:20:54;16.70;78.60
22108;DHT22;11220;48.812;9.128;2022-12-05T16:23:29;16.70;77.50
22108;DHT22;11220;48.812;9.128;2022-12-05T16:26:20;16.90;78.00
22108;DHT22;11220;48.812;9.128;2022-12-05T16:29:01;16.60;78.60
22108;DHT22;11220;48.812;9.128;2022-12-05T16:31:28;16.70;79.30
22108;DHT22;11220;48.812;9.128;2022-12-05T16:34:06;16.70;79.60
22108;DHT22;11220;48.812;9.128;2022-12-05T16:36:33;16.80;79.90
22108;DHT22;11220;48.812;9.128;2022-12-05T16:39:00;16.80;80.00
22108;DHT22;11220;48.812;9.128;2022-12-05T16:41:37;16.80;80.00
22108;DHT22;11220;48.812;9.128;2022-12-05T16:44:04;16.90;80.20
22108;DHT22;11220;48.812;9.128;2022-12-05T16:49:21;16.90;80.20
22108;DHT22;11220;48.812;9.128;2022-12-05T16:54:34;16.90;80.20
22108;DHT22;11220;48.812;9.128;2022-12-05T16:57:00;17.00;80.10
22108;DHT22;11220;48.812;9.128;2022-12-05T16:59:35;16.90;77.50
22108;DHT22;11220;48.812;9.128;2022-12-05T17:02:04;16.80;77.80
22108;DHT22;11220;48.812;9.128;2022-12-05T17:04:31;16.80;78.70
22108;DHT22;11220;48.812;9.128;2022-12-05T17:06:57;16.80;79.30
22108;DHT22;11220;48.812;9.128;2022-12-05T17:09:23;16.80;79.60
22108;DHT22;11220;48.812;9.128;2022-12-05T17:11:51;16.80;79.80
22108;DHT22;11220;48.812;9.128;2022-12-05T17:14:18;16.80;79.90
22108;DHT22;11220;48.812;9.128;2022-12-05T17:16:44;17.00;80.10
22108;DHT22;11220;48.812;9.128;2022-12-05T17:19:10;16.90;80.20
22108;DHT22;11220;48.812;9.128;2022-12-05T17:21:36;16.90;80.10
22108;DHT22;11220;48.812;9.128;2022-12-05T17:24:02;16.90;80.20
22108;DHT22;11220;48.812;9.128;2022-12-05T17:26:28;16.90;80.20
22108;DHT22;11220;48.812;9.128;2022-12-05T17:28:54;17.00;80.30
22108;DHT22;11220;48.812;9.128;2022-12-05T17:31:21;17.50;80.70
22108;DHT22;11220;48.812;9.128;2022-12-05T17:33:48;17.00;80.50
22108;DHT22;11220;48.812;9.128;2022-12-05T17:36:14;17.40;80.80
22108;DHT22;11220;48.812;9.128;2022-12-05T17:38:41;17.50;80.80
22108;DHT22;11220;48.812;9.128;2022-12-05T17:41:07;17.00;80.50
22108;DHT22;11220;48.812;9.128;2022-12-05T17:43:33;17.60;80.90
22108;DHT22;11220;48.812;9.128;2022-12-05T17:45:59;17.00;80.60
22108;DHT22;11220;48.812;9.128;2022-12-05T17:48:25;17.00;80.60
22108;DHT22;11220;48.812;9.128;2022-12-05T17:50:51;17.00;80.70
22108;DHT22;11220;48.812;9.128;2022-12-05T17:53:20;17.10;80.80
22108;DHT22;11220;48.812;9.128;2022-12-05T17:55:46;17.00;80.80
22108;DHT22;11220;48.812;9.128;2022-12-05T17:58:13;17.80;81.40
22108;DHT22;11220;48.812;9.128;2022-12-05T18:00:41;17.00;80.90
22108;DHT22;11220;48.812;9.128;2022-12-05T18:03:11;17.70;81.40
22108;DHT22;11220;48.812;9.128;2022-12-05T18:05:37;17.00;81.00
22108;DHT22;11220;48.812;9.128;2022-12-05T18:08:03;17.10;81.10
22108;DHT22;11220;48.812;9.128;2022-12-05T18:10:29;17.10;81.10
22108;DHT22;11220;48.812;9.128;2022-12-05T18:12:55;17.50;81.40
22108;DHT22;11220;48.812;9.128;2022-12-05T18:15:20;18.00;81.70
22108;DHT22;11220;48.812;9.128;2022-12-05T18:17:46;17.20;81.20
22108;DHT22;11220;48.812;9.128;2022-12-05T18:20:13;17.20;81.30
22108;DHT22;11220;48.812;9.128;2022-12-05T18:22:39;17.20;81.20
22108;DHT22;11220;48.812;9.128;2022-12-05T18:25:05;17.20;81.20
22108;DHT22;11220;48.812;9.128;2022-12-05T18:27:32;17.20;81.20
22108;DHT22;11220;48.812;9.128;2022-12-05T18:29:58;17.20;82.10
22108;DHT22;11220;48.812;9.128;2022-12-05T18:32:24;17.90;81.70
22108;DHT22;11220;48.812;9.128;2022-12-05T18:34:49;17.60;82.50
22108;DHT22;11220;48.812;9.128;2022-12-05T18:37:15;17.20;81.00
22108;DHT22;11220;48.812;9.128;2022-12-05T18:39:42;17.30;81.00
22108;DHT22;11220;48.812;9.128;2022-12-05T18:42:08;17.20;80.90
22108;DHT22;11220;48.812;9.128;2022-12-05T18:44:34;17.20;80.90
22108;DHT22;11220;48.812;9.128;2022-12-05T18:46:59;17.20;80.90